sensor_id;sensor_type;location;lat;lon;timestamp;temperature;humidity
21445;DHT22;10883;51.946;20.140;2023-01-15T00:00:57;5.90;99.90
21445;DHT22;10883;51.946;20.140;2023-01-15T00:03:23;5.90;99.90
21445;DHT22;10883;51.946;20.140;2023-01-15T00:05:48;5.90;99.90
21445;DHT22;10883;51.946;20.140;2023-01-15T00:08:14;5.90;99.90
21445;DHT22;10883;51.946;20.140;2023-01-15T00:10:40;5.80;99.90
21445;DHT22;10883;51.946;20.140;2023-01-15T00:13:06;5.90;99.90
21445;DHT22;10883;51.946;20.140;2023-01-15T00:15:31;5.90;99.90
21445;DHT22;10883;51.946;20.140;2023-01-15T00:17:57;5.90;99.90
21445;DHT22;10883;51.946;20.140;2023-01-15T00:20:23;5.90;99.90
21445;DHT22;10883;51.946;20.140;2023-01-15T00:22:49;5.90;99.90
21445;DHT22;10883;51.946;20.140;2023-01-15T00:25:15;5.80;99.90
21445;DHT22;10883;51.946;20.140;2023-01-15T00:27:59;5.80;99.90
21445;DHT22;10883;51.946;20.140;2023-01-15T00:30:25;5.70;99.90
21445;DHT22;10883;51.946;20.140;2023-01-15T00:32:51;5.70;99.90
21445;DHT22;10883;51.946;20.140;2023-01-15T00:35:20;5.60;99.90
21445;DHT22;10883;51.946;20.140;2023-01-15T00:37:46;5.60;99.90
21445;DHT22;10883;51.946;20.140;2023-01-15T00:40:13;5.60;99.90
21445;DHT22;10883;51.946;20.140;2023-01-15T00:42:40;5.60;99.90
21445;DHT22;10883;51.946;20.140;2023-01-15T00:45:06;5.60;99.90
21445;DHT22;10883;51.946;20.140;2023-01-15T00:47:39;5.60;99.90
21445;DHT22;10883;51.946;20.140;2023-01-15T00:50:07;5.50;99.90
21445;DHT22;10883;51.946;20.140;2023-01-15T00:52:33;5.50;99.90
21445;DHT22;10883;51.946;20.140;2023-01-15T00:54:59;5.50;99.90
21445;DHT22;10883;51.946;20.140;2023-01-15T00:57:26;5.50;99.90
21445;DHT22;10883;51.946;20.140;2023-01-15T00:59:51;5.40;99.90
21445;DHT22;10883;51.946;20.140;2023-01-15T01:02:17;5.40;99.90
21445;DHT22;10883;51.946;20.140;2023-01-15T01:04:43;5.40;99.90
21445;DHT22;10883;51.946;20.140;2023-01-15T01:07:09;5.40;99.90
21445;DHT22;10883;51.946;20.140;2023-01-15T01:09:35;5.40;99.90
21445;DHT22;10883;51.946;20.140;2023-01-15T01:12:01;5.40;99.90
21445;DHT22;10883;51.946;20.140;2023-01-15T01:14:27;5.40;99.90
21445;DHT22;10883;51.946;20.140;2023-01-15T01:16:53;5.30;99.90
21445;DHT22;10883;51.946;20.140;2023-01-15T01:19:21;5.30;99.90
21445;DHT22;10883;51.946;20.140;2023-01-15T01:21:48;5.30;99.90
21445;DHT22;10883;51.946;20.140;2023-01-15T01:24:17;5.30;99.90
21445;DHT22;10883;51.946;20.140;2023-01-15T01:26:43;5.20;99.90
21445;DHT22;10883;51.946;20.140;2023-01-15T01:29:18;5.20;99.90
21445;DHT22;10883;51.946;20.140;2023-01-15T01:31:45;5.20;99.90
21445;DHT22;10883;51.946;20.140;2023-01-15T01:34:12;5.10;99.90
21445;DHT22;10883;51.946;20.140;2023-01-15T01:36:40;5.10;99.90
21445;DHT22;10883;51.946;20.140;2023-01-15T01:39:13;5.00;99.90
21445;DHT22;10883;51.946;20.140;2023-01-15T01:41:39;5.00;99.90
21445;DHT22;10883;51.946;20.140;2023-01-15T01:44:54;4.90;99.90
21445;DHT22;10883;51.946;20.140;2023-01-15T01:46:52;5.00;99.90
21445;DHT22;10883;51.946;20.140;2023-01-15T01:49:18;4.90;99.90
21445;DHT22;10883;51.946;20.140;2023-01-15T01:51:58;4.90;99.90
21445;DHT22;10883;51.946;20.140;2023-01-15T01:54:28;4.90;99.90
21445;DHT22;10883;51.946;20.140;2023-01-15T01:56:56;4.90;99.90
21445;DHT22;10883;51.946;20.140;2023-01-15T01:59:22;4.90;99.90
21445;DHT22;10883;51.946;20.140;2023-01-15T02:01:49;4.90;99.90
21445;DHT22;10883;51.946;20.140;2023-01-15T02:04:18;4.90;99.90
21445;DHT22;10883;51.946;20.140;2023-01-15T02:06:44;4.90;99.90
21445;DHT22;10883;51.946;20.140;2023-01-15T02:09:11;4.90;99.90
21445;DHT22;10883;51.946;20.140;2023-01-15T02:11:36;4.90;99.90
21445;DHT22;10883;51.946;20.140;2023-01-15T02:14:34;4.90;99.90
21445;DHT22;10883;51.946;20.140;2023-01-15T02:17:15;4.90;99.90
21445;DHT22;10883;51.946;20.140;2023-01-15T02:20:05;5.00;99.90
21445;DHT22;10883;51.946;20.140;2023-01-15T02:23:02;5.00;99.90
21445;DHT22;10883;51.946;20.140;2023-01-15T02:28:21;5.10;99.90
21445;DHT22;10883;51.946;20.140;2023-01-15T02:30:55;5.10;99.90
21445;DHT22;10883;51.946;20.140;2023-01-15T02:33:30;5.10;99.90
21445;DHT22;10883;51.946;20.140;2023-01-15T02:35:59;5.10;99.90
21445;DHT22;10883;51.946;20.140;2023-01-15T02:38:36;5.10;99.90
21445;DHT22;10883;51.946;20.140;2023-01-15T02:41:04;5.10;99.90
21445;DHT22;10883;51.946;20.140;2023-01-15T02:43:35;5.20;99.90
21445;DHT22;10883;51.946;20.140;2023-01-15T02:46:03;5.20;99.90
21445;DHT22;10883;51.946;20.140;2023-01-15T02:48:32;5.20;99.90
21445;DHT22;10883;51.946;20.140;2023-01-15T02:51:14;5.20;99.90
21445;DHT22;10883;51.946;20.140;2023-01-15T02:53:42;5.20;99.90
21445;DHT22;10883;51.946;20.140;2023-01-15T02:56:13;5.20;99.90
21445;DHT22;10883;51.946;20.140;2023-01-15T02:58:41;5.30;99.90
21445;DHT22;10883;51.946;20.140;2023-01-15T03:01:15;5.30;99.90
21445;DHT22;10883;51.946;20.140;2023-01-15T03:04:03;5.30;99.90
21445;DHT22;10883;51.946;20.140;2023-01-15T03:06:37;5.30;99.90
21445;DHT22;10883;51.946;20.140;2023-01-15T03:09:06;5.40;99.90
21445;DHT22;10883;51.946;20.140;2023-01-15T03:11:36;5.40;99.90
21445;DHT22;10883;51.946;20.140;2023-01-15T03:14:08;5.40;99.90
21445;DHT22;10883;51.946;20.140;2023-01-15T03:16:52;5.50;99.90
21445;DHT22;10883;51.946;20.140;2023-01-15T03:19:26;5.50;99.90
21445;DHT22;10883;51.946;20.140;2023-01-15T03:21:57;5.40;99.90
21445;DHT22;10883;51.946;20.140;2023-01-15T03:26:53;5.40;99.90
21445;DHT22;10883;51.946;20.140;2023-01-15T03:29:20;5.50;99.90
21445;DHT22;10883;51.946;20.140;2023-01-15T03:31:47;5.50;99.90
21445;DHT22;10883;51.946;20.140;2023-01-15T03:34:14;5.50;99.90
21445;DHT22;10883;51.946;20.140;2023-01-15T03:36:40;5.50;99.90
21445;DHT22;10883;51.946;20.140;2023-01-15T03:39:06;5.50;99.90
21445;DHT22;10883;51.946;20.140;2023-01-15T03:42:05;5.50;99.90
21445;DHT22;10883;51.946;20.140;2023-01-15T03:58:37;5.50;99.90
21445;DHT22;10883;51.946;20.140;2023-01-15T04:01:08;5.50;99.90
21445;DHT22;10883;51.946;20.140;2023-01-15T04:03:36;5.50;99.90
21445;DHT22;10883;51.946;20.140;2023-01-15T04:06:02;5.60;99.90
21445;DHT22;10883;51.946;20.140;2023-01-15T04:08:32;5.60;99.90
21445;DHT22;10883;51.946;20.140;2023-01-15T04:11:00;5.60;99.90
21445;DHT22;10883;51.946;20.140;2023-01-15T04:13:27;5.60;99.90
21445;DHT22;10883;51.946;20.140;2023-01-15T04:15:53;5.60;99.90
21445;DHT22;10883;51.946;20.140;2023-01-15T04:18:19;5.60;99.90
21445;DHT22;10883;51.946;20.140;2023-01-15T04:20:46;5.70;99.90
21445;DHT22;10883;51.946;20.140;2023-01-15T04:23:12;5.70;99.90
21445;DHT22;10883;51.946;20.140;2023-01-15T04:25:38;5.70;99.90
21445;DHT22;10883;51.946;20.140;2023-01-15T04:28:05;5.80;99.90
21445;DHT22;10883;51.946;20.140;2023-01-15T04:30:32;5.70;99.90
21445;DHT22;10883;51.946;20.140;2023-01-15T04:32:57;5.80;99.90
21445;DHT22;10883;51.946;20.140;2023-01-15T04:35:24;5.80;99.90
21445;DHT22;10883;51.946;20.140;2023-01-15T04:37:57;5.80;99.90
21445;DHT22;10883;51.946;20.140;2023-01-15T04:40:23;5.80;99.90
21445;DHT22;10883;51.946;20.140;2023-01-15T04:43:12;5.80;99.90
21445;DHT22;10883;51.946;20.140;2023-01-15T04:45:57;5.80;99.90
21445;DHT22;10883;51.946;20.140;2023-01-15T04:48:23;5.80;99.90
21445;DHT22;10883;51.946;20.140;2023-01-15T04:50:49;5.90;99.90
21445;DHT22;10883;51.946;20.140;2023-01-15T04:53:15;5.90;99.90
21445;DHT22;10883;51.946;20.140;2023-01-15T04:55:41;5.90;99.90
21445;DHT22;10883;51.946;20.140;2023-01-15T04:58:06;5.90;99.90
21445;DHT22;10883;51.946;20.140;2023-01-15T05:00:32;5.90;99.90
21445;DHT22;10883;51.946;20.140;2023-01-15T05:02:58;5.90;99.90
21445;DHT22;10883;51.946;20.140;2023-01-15T05:05:24;6.00;99.90
21445;DHT22;10883;51.946;20.140;2023-01-15T05:07:49;5.90;99.90
21445;DHT22;10883;51.946;20.140;2023-01-15T05:10:15;6.00;99.90
21445;DHT22;10883;51.946;20.140;2023-01-15T05:12:41;6.00;99.90
21445;DHT22;10883;51.946;20.140;2023-01-15T05:15:07;6.00;99.90
21445;DHT22;10883;51.946;20.140;2023-01-15T05:17:33;6.00;99.90
21445;DHT22;10883;51.946;20.140;2023-01-15T05:19:59;6.00;99.90
21445;DHT22;10883;51.946;20.140;2023-01-15T05:22:24;6.10;99.90
21445;DHT22;10883;51.946;20.140;2023-01-15T05:24:50;6.10;99.90
21445;DHT22;10883;51.946;20.140;2023-01-15T05:27:16;6.10;99.90
21445;DHT22;10883;51.946;20.140;2023-01-15T05:29:42;6.10;99.90
21445;DHT22;10883;51.946;20.140;2023-01-15T05:32:08;6.10;99.90
21445;DHT22;10883;51.946;20.140;2023-01-15T05:34:34;6.10;99.90
21445;DHT22;10883;51.946;20.140;2023-01-15T05:36:59;6.10;99.90
21445;DHT22;10883;51.946;20.140;2023-01-15T05:39:25;6.10;99.90
21445;DHT22;10883;51.946;20.140;2023-01-15T05:41:51;6.10;99.90
21445;DHT22;10883;51.946;20.140;2023-01-15T05:44:35;6.10;99.90
21445;DHT22;10883;51.946;20.140;2023-01-15T05:47:01;6.10;99.90
21445;DHT22;10883;51.946;20.140;2023-01-15T05:49:30;6.10;99.90
21445;DHT22;10883;51.946;20.140;2023-01-15T05:51:57;6.10;99.90
21445;DHT22;10883;51.946;20.140;2023-01-15T05:54:28;6.10;99.90
21445;DHT22;10883;51.946;20.140;2023-01-15T05:56:54;6.10;99.90
21445;DHT22;10883;51.946;20.140;2023-01-15T05:59:23;6.10;99.90
21445;DHT22;10883;51.946;20.140;2023-01-15T06:01:50;6.10;99.90
21445;DHT22;10883;51.946;20.140;2023-01-15T06:04:16;6.10;99.90
21445;DHT22;10883;51.946;20.140;2023-01-15T06:06:45;6.10;99.90
21445;DHT22;10883;51.946;20.140;2023-01-15T06:09:12;6.10;99.90
21445;DHT22;10883;51.946;20.140;2023-01-15T06:11:38;6.10;99.90
21445;DHT22;10883;51.946;20.140;2023-01-15T06:14:04;6.00;99.90
21445;DHT22;10883;51.946;20.140;2023-01-15T06:16:30;6.00;99.90
21445;DHT22;10883;51.946;20.140;2023-01-15T06:19:04;6.00;99.90
21445;DHT22;10883;51.946;20.140;2023-01-15T06:21:31;6.00;99.90
21445;DHT22;10883;51.946;20.140;2023-01-15T06:23:57;6.00;99.90
21445;DHT22;10883;51.946;20.140;2023-01-15T06:26:23;6.10;99.90
21445;DHT22;10883;51.946;20.140;2023-01-15T06:28:49;6.10;99.90
21445;DHT22;10883;51.946;20.140;2023-01-15T06:31:17;6.10;99.90
21445;DHT22;10883;51.946;20.140;2023-01-15T06:33:44;6.20;99.90
21445;DHT22;10883;51.946;20.140;2023-01-15T06:36:12;6.20;99.90
21445;DHT22;10883;51.946;20.140;2023-01-15T06:38:39;6.20;99.90
21445;DHT22;10883;51.946;20.140;2023-01-15T06:41:06;6.30;99.90
21445;DHT22;10883;51.946;20.140;2023-01-15T06:43:53;6.30;99.90
21445;DHT22;10883;51.946;20.140;2023-01-15T06:46:45;6.30;99.90
21445;DHT22;10883;51.946;20.140;2023-01-15T06:49:30;6.40;99.90
21445;DHT22;10883;51.946;20.140;2023-01-15T06:51:56;6.40;99.90
21445;DHT22;10883;51.946;20.140;2023-01-15T06:54:22;6.50;99.90
21445;DHT22;10883;51.946;20.140;2023-01-15T06:56:48;6.50;99.90
21445;DHT22;10883;51.946;20.140;2023-01-15T06:59:14;6.60;99.90
21445;DHT22;10883;51.946;20.140;2023-01-15T07:01:39;6.70;99.90
21445;DHT22;10883;51.946;20.140;2023-01-15T07:04:05;6.70;99.90
21445;DHT22;10883;51.946;20.140;2023-01-15T07:06:31;6.70;99.90
21445;DHT22;10883;51.946;20.140;2023-01-15T07:08:57;6.80;99.90
21445;DHT22;10883;51.946;20.140;2023-01-15T07:11:22;6.80;99.90
21445;DHT22;10883;51.946;20.140;2023-01-15T07:13:48;6.90;99.90
21445;DHT22;10883;51.946;20.140;2023-01-15T07:16:14;6.90;99.90
21445;DHT22;10883;51.946;20.140;2023-01-15T07:18:53;7.00;99.90
21445;DHT22;10883;51.946;20.140;2023-01-15T07:21:19;7.10;99.90
21445;DHT22;10883;51.946;20.140;2023-01-15T07:23:45;7.10;99.90
21445;DHT22;10883;51.946;20.140;2023-01-15T07:26:11;7.20;99.90
21445;DHT22;10883;51.946;20.140;2023-01-15T07:28:37;7.20;99.90
21445;DHT22;10883;51.946;20.140;2023-01-15T07:31:02;7.30;99.90
21445;DHT22;10883;51.946;20.140;2023-01-15T07:33:28;7.30;99.90
21445;DHT22;10883;51.946;20.140;2023-01-15T07:35:54;7.40;99.90
21445;DHT22;10883;51.946;20.140;2023-01-15T07:38:21;7.40;99.90
21445;DHT22;10883;51.946;20.140;2023-01-15T07:40:47;7.40;99.90
21445;DHT22;10883;51.946;20.140;2023-01-15T07:43:33;7.40;99.90
21445;DHT22;10883;51.946;20.140;2023-01-15T07:46:17;7.40;99.90
21445;DHT22;10883;51.946;20.140;2023-01-15T07:49:01;7.50;99.90
21445;DHT22;10883;51.946;20.140;2023-01-15T07:51:46;7.50;99.90
21445;DHT22;10883;51.946;20.140;2023-01-15T07:54:12;7.50;99.90
21445;DHT22;10883;51.946;20.140;2023-01-15T07:56:37;7.50;99.90
21445;DHT22;10883;51.946;20.140;2023-01-15T07:59:03;7.50;99.90
21445;DHT22;10883;51.946;20.140;2023-01-15T08:01:29;7.50;99.90
21445;DHT22;10883;51.946;20.140;2023-01-15T08:03:55;7.40;99.90
21445;DHT22;10883;51.946;20.140;2023-01-15T08:06:20;7.30;99.90
21445;DHT22;10883;51.946;20.140;2023-01-15T08:08:46;7.30;99.90
21445;DHT22;10883;51.946;20.140;2023-01-15T08:11:12;7.30;99.90
21445;DHT22;10883;51.946;20.140;2023-01-15T08:13:56;7.30;99.90
21445;DHT22;10883;51.946;20.140;2023-01-15T08:16:40;7.20;99.90
21445;DHT22;10883;51.946;20.140;2023-01-15T08:19:06;7.30;99.90
21445;DHT22;10883;51.946;20.140;2023-01-15T08:21:32;7.20;99.90
21445;DHT22;10883;51.946;20.140;2023-01-15T08:23:57;7.20;99.90
21445;DHT22;10883;51.946;20.140;2023-01-15T08:26:23;7.20;99.90
21445;DHT22;10883;51.946;20.140;2023-01-15T08:28:49;7.20;99.90
21445;DHT22;10883;51.946;20.140;2023-01-15T08:31:15;7.20;99.90
21445;DHT22;10883;51.946;20.140;2023-01-15T08:33:40;7.20;99.90
21445;DHT22;10883;51.946;20.140;2023-01-15T08:36:06;7.20;99.90
21445;DHT22;10883;51.946;20.140;2023-01-15T08:38:33;7.20;99.90
21445;DHT22;10883;51.946;20.140;2023-01-15T08:40:59;7.20;99.90
21445;DHT22;10883;51.946;20.140;2023-01-15T08:43:26;7.20;99.90
21445;DHT22;10883;51.946;20.140;2023-01-15T08:45:54;7.20;99.90
21445;DHT22;10883;51.946;20.140;2023-01-15T08:48:22;7.20;99.90
21445;DHT22;10883;51.946;20.140;2023-01-15T08:50:48;7.20;99.90
21445;DHT22;10883;51.946;20.140;2023-01-15T08:53:15;7.20;99.90
21445;DHT22;10883;51.946;20.140;2023-01-15T08:55:41;7.20;99.90
21445;DHT22;10883;51.946;20.140;2023-01-15T08:58:07;7.20;99.90
21445;DHT22;10883;51.946;20.140;2023-01-15T09:00:32;7.20;99.90
21445;DHT22;10883;51.946;20.140;2023-01-15T09:02:58;7.10;99.90
21445;DHT22;10883;51.946;20.140;2023-01-15T09:05:24;7.10;99.90
21445;DHT22;10883;51.946;20.140;2023-01-15T09:07:52;7.10;99.90
21445;DHT22;10883;51.946;20.140;2023-01-15T09:10:19;7.10;99.90
21445;DHT22;10883;51.946;20.140;2023-01-15T09:12:45;7.10;99.90
21445;DHT22;10883;51.946;20.140;2023-01-15T09:15:11;7.10;99.90
21445;DHT22;10883;51.946;20.140;2023-01-15T09:17:37;7.00;99.90
21445;DHT22;10883;51.946;20.140;2023-01-15T09:20:06;7.00;99.90
21445;DHT22;10883;51.946;20.140;2023-01-15T09:22:32;7.00;99.90
21445;DHT22;10883;51.946;20.140;2023-01-15T09:24:59;6.90;99.90
21445;DHT22;10883;51.946;20.140;2023-01-15T09:27:26;6.90;99.90
21445;DHT22;10883;51.946;20.140;2023-01-15T09:29:52;6.90;99.90
21445;DHT22;10883;51.946;20.140;2023-01-15T09:32:18;6.90;99.90
21445;DHT22;10883;51.946;20.140;2023-01-15T09:34:43;7.00;99.90
21445;DHT22;10883;51.946;20.140;2023-01-15T09:37:09;7.00;99.90
21445;DHT22;10883;51.946;20.140;2023-01-15T09:39:37;7.00;99.90
21445;DHT22;10883;51.946;20.140;2023-01-15T09:45:09;7.20;99.90
21445;DHT22;10883;51.946;20.140;2023-01-15T09:53:45;7.30;99.90
21445;DHT22;10883;51.946;20.140;2023-01-15T09:56:26;7.40;99.90
21445;DHT22;10883;51.946;20.140;2023-01-15T09:58:54;7.40;99.90
21445;DHT22;10883;51.946;20.140;2023-01-15T10:01:26;7.50;99.90
21445;DHT22;10883;51.946;20.140;2023-01-15T10:06:27;7.60;99.90
21445;DHT22;10883;51.946;20.140;2023-01-15T10:09:10;7.50;99.90
21445;DHT22;10883;51.946;20.140;2023-01-15T10:12:03;7.50;99.90
21445;DHT22;10883;51.946;20.140;2023-01-15T10:15:19;7.40;99.90
21445;DHT22;10883;51.946;20.140;2023-01-15T10:17:48;7.30;99.90
21445;DHT22;10883;51.946;20.140;2023-01-15T10:25:38;7.10;99.90
21445;DHT22;10883;51.946;20.140;2023-01-15T10:28:24;7.20;99.90
21445;DHT22;10883;51.946;20.140;2023-01-15T10:30:54;7.20;99.90
21445;DHT22;10883;51.946;20.140;2023-01-15T10:33:33;7.20;99.90
21445;DHT22;10883;51.946;20.140;2023-01-15T10:36:18;7.20;99.90
21445;DHT22;10883;51.946;20.140;2023-01-15T10:41:59;7.20;99.90
21445;DHT22;10883;51.946;20.140;2023-01-15T10:47:19;7.20;99.90
21445;DHT22;10883;51.946;20.140;2023-01-15T10:49:48;7.20;99.90
21445;DHT22;10883;51.946;20.140;2023-01-15T10:52:25;7.20;99.90
21445;DHT22;10883;51.946;20.140;2023-01-15T10:55:18;7.30;99.90
21445;DHT22;10883;51.946;20.140;2023-01-15T11:00:36;7.30;99.90
21445;DHT22;10883;51.946;20.140;2023-01-15T11:03:04;7.30;99.90
21445;DHT22;10883;51.946;20.140;2023-01-15T11:05:37;7.30;99.90
21445;DHT22;10883;51.946;20.140;2023-01-15T11:08:06;7.30;99.90
21445;DHT22;10883;51.946;20.140;2023-01-15T11:10:32;7.40;99.90
21445;DHT22;10883;51.946;20.140;2023-01-15T11:13:07;7.40;99.90
21445;DHT22;10883;51.946;20.140;2023-01-15T11:15:54;7.50;99.90
21445;DHT22;10883;51.946;20.140;2023-01-15T11:18:41;7.50;99.90
21445;DHT22;10883;51.946;20.140;2023-01-15T11:21:27;7.50;99.90
21445;DHT22;10883;51.946;20.140;2023-01-15T11:23:55;7.50;99.90
21445;DHT22;10883;51.946;20.140;2023-01-15T11:26:27;7.60;99.90
21445;DHT22;10883;51.946;20.140;2023-01-15T11:28:54;7.60;99.90
21445;DHT22;10883;51.946;20.140;2023-01-15T11:31:21;7.70;99.90
21445;DHT22;10883;51.946;20.140;2023-01-15T11:34:01;7.70;99.90
21445;DHT22;10883;51.946;20.140;2023-01-15T11:36:28;7.70;99.90
21445;DHT22;10883;51.946;20.140;2023-01-15T11:38:55;7.70;99.90
21445;DHT22;10883;51.946;20.140;2023-01-15T11:41:29;7.70;99.90
21445;DHT22;10883;51.946;20.140;2023-01-15T11:44:16;7.70;99.90
21445;DHT22;10883;51.946;20.140;2023-01-15T11:47:01;7.80;99.90
21445;DHT22;10883;51.946;20.140;2023-01-15T11:49:50;7.80;99.90
21445;DHT22;10883;51.946;20.140;2023-01-15T11:52:46;7.90;99.90
21445;DHT22;10883;51.946;20.140;2023-01-15T11:55:17;7.90;99.90
21445;DHT22;10883;51.946;20.140;2023-01-15T11:57:44;7.90;99.90
21445;DHT22;10883;51.946;20.140;2023-01-15T12:00:25;7.90;99.90
21445;DHT22;10883;51.946;20.140;2023-01-15T12:02:54;8.00;99.90
21445;DHT22;10883;51.946;20.140;2023-01-15T12:05:35;7.90;99.90
21445;DHT22;10883;51.946;20.140;2023-01-15T12:08:10;7.90;99.90
21445;DHT22;10883;51.946;20.140;2023-01-15T12:10:51;7.90;99.90
21445;DHT22;10883;51.946;20.140;2023-01-15T12:16:22;7.90;99.90
21445;DHT22;10883;51.946;20.140;2023-01-15T12:18:53;7.90;99.90
21445;DHT22;10883;51.946;20.140;2023-01-15T12:30:01;7.80;99.90
21445;DHT22;10883;51.946;20.140;2023-01-15T12:32:32;7.80;99.90
21445;DHT22;10883;51.946;20.140;2023-01-15T12:37:35;7.90;99.90
21445;DHT22;10883;51.946;20.140;2023-01-15T12:40:20;7.90;99.90
21445;DHT22;10883;51.946;20.140;2023-01-15T12:42:51;7.90;99.90
21445;DHT22;10883;51.946;20.140;2023-01-15T12:45:39;7.90;99.90
21445;DHT22;10883;51.946;20.140;2023-01-15T12:50:48;7.90;99.90
21445;DHT22;10883;51.946;20.140;2023-01-15T12:53:45;7.90;99.90
21445;DHT22;10883;51.946;20.140;2023-01-15T13:01:44;7.90;99.90
21445;DHT22;10883;51.946;20.140;2023-01-15T13:04:14;7.90;99.90
21445;DHT22;10883;51.946;20.140;2023-01-15T13:06:47;7.90;99.90
21445;DHT22;10883;51.946;20.140;2023-01-15T13:11:56;7.90;99.90
21445;DHT22;10883;51.946;20.140;2023-01-15T13:14:24;7.90;99.90
21445;DHT22;10883;51.946;20.140;2023-01-15T13:17:04;7.90;99.90
21445;DHT22;10883;51.946;20.140;2023-01-15T13:22:33;7.90;99.90
21445;DHT22;10883;51.946;20.140;2023-01-15T13:28:10;7.90;99.90
21445;DHT22;10883;51.946;20.140;2023-01-15T13:31:05;7.90;99.90
21445;DHT22;10883;51.946;20.140;2023-01-15T13:36:24;7.90;99.90
21445;DHT22;10883;51.946;20.140;2023-01-15T13:38:57;7.90;99.90
21445;DHT22;10883;51.946;20.140;2023-01-15T13:41:26;7.90;99.90
21445;DHT22;10883;51.946;20.140;2023-01-15T13:44:20;7.90;99.90
21445;DHT22;10883;51.946;20.140;2023-01-15T13:47:09;7.80;99.90
21445;DHT22;10883;51.946;20.140;2023-01-15T13:49:37;7.80;99.90
21445;DHT22;10883;51.946;20.140;2023-01-15T13:52:05;7.80;99.90
21445;DHT22;10883;51.946;20.140;2023-01-15T13:54:39;7.80;99.90
21445;DHT22;10883;51.946;20.140;2023-01-15T13:57:34;7.80;99.90
21445;DHT22;10883;51.946;20.140;2023-01-15T14:00:07;7.80;99.90
21445;DHT22;10883;51.946;20.140;2023-01-15T14:02:36;7.80;99.90
21445;DHT22;10883;51.946;20.140;2023-01-15T14:07:48;7.80;99.90
21445;DHT22;10883;51.946;20.140;2023-01-15T14:12:52;7.80;99.90
21445;DHT22;10883;51.946;20.140;2023-01-15T14:18:36;7.80;99.90
21445;DHT22;10883;51.946;20.140;2023-01-15T14:35:14;7.80;99.90
21445;DHT22;10883;51.946;20.140;2023-01-15T14:37:56;7.80;99.90
21445;DHT22;10883;51.946;20.140;2023-01-15T14:40:27;7.80;99.90
21445;DHT22;10883;51.946;20.140;2023-01-15T14:42:57;7.80;99.90
21445;DHT22;10883;51.946;20.140;2023-01-15T14:45:40;7.80;99.90
21445;DHT22;10883;51.946;20.140;2023-01-15T14:50:53;7.80;99.90
21445;DHT22;10883;51.946;20.140;2023-01-15T14:56:21;7.80;99.90
21445;DHT22;10883;51.946;20.140;2023-01-15T15:01:54;7.80;99.90
21445;DHT22;10883;51.946;20.140;2023-01-15T15:07:17;7.90;99.90
21445;DHT22;10883;51.946;20.140;2023-01-15T15:15:50;7.90;99.90
21445;DHT22;10883;51.946;20.140;2023-01-15T15:18:23;8.00;99.90
21445;DHT22;10883;51.946;20.140;2023-01-15T15:26:36;8.00;99.90
21445;DHT22;10883;51.946;20.140;2023-01-15T15:29:05;8.00;99.90
21445;DHT22;10883;51.946;20.140;2023-01-15T15:31:34;8.00;99.90
21445;DHT22;10883;51.946;20.140;2023-01-15T15:34:01;7.90;99.90
21445;DHT22;10883;51.946;20.140;2023-01-15T15:36:33;7.90;99.90
21445;DHT22;10883;51.946;20.140;2023-01-15T15:39:13;7.90;99.90
21445;DHT22;10883;51.946;20.140;2023-01-15T15:41:42;7.90;99.90
21445;DHT22;10883;51.946;20.140;2023-01-15T15:44:54;7.90;99.90
21445;DHT22;10883;51.946;20.140;2023-01-15T15:47:41;7.80;99.90
21445;DHT22;10883;51.946;20.140;2023-01-15T15:50:33;7.70;99.90
21445;DHT22;10883;51.946;20.140;2023-01-15T15:53:00;7.60;99.90
21445;DHT22;10883;51.946;20.140;2023-01-15T15:55:42;7.60;99.90
21445;DHT22;10883;51.946;20.140;2023-01-15T15:58:21;7.50;99.90
21445;DHT22;10883;51.946;20.140;2023-01-15T16:00:48;7.50;99.90
21445;DHT22;10883;51.946;20.140;2023-01-15T16:03:23;7.50;99.90
21445;DHT22;10883;51.946;20.140;2023-01-15T16:08:25;7.40;99.90
21445;DHT22;10883;51.946;20.140;2023-01-15T16:10:53;7.40;99.90
21445;DHT22;10883;51.946;20.140;2023-01-15T16:13:33;7.30;99.90
21445;DHT22;10883;51.946;20.140;2023-01-15T16:16:01;7.30;99.90
21445;DHT22;10883;51.946;20.140;2023-01-15T16:18:50;7.30;99.90
21445;DHT22;10883;51.946;20.140;2023-01-15T16:21:40;7.20;99.90
21445;DHT22;10883;51.946;20.140;2023-01-15T16:24:07;7.10;99.90
21445;DHT22;10883;51.946;20.140;2023-01-15T16:26:45;7.10;99.90
21445;DHT22;10883;51.946;20.140;2023-01-15T16:29:21;7.00;99.90
21445;DHT22;10883;51.946;20.140;2023-01-15T16:31:49;6.90;99.90
21445;DHT22;10883;51.946;20.140;2023-01-15T16:34:31;6.90;99.90
21445;DHT22;10883;51.946;20.140;2023-01-15T16:37:00;6.90;99.90
21445;DHT22;10883;51.946;20.140;2023-01-15T16:39:39;6.80;99.90
21445;DHT22;10883;51.946;20.140;2023-01-15T16:42:35;6.70;99.90
21445;DHT22;10883;51.946;20.140;2023-01-15T16:45:05;6.70;99.90
21445;DHT22;10883;51.946;20.140;2023-01-15T16:47:33;6.60;99.90
21445;DHT22;10883;51.946;20.140;2023-01-15T16:52:51;6.60;99.90
21445;DHT22;10883;51.946;20.140;2023-01-15T16:58:19;6.60;99.90
21445;DHT22;10883;51.946;20.140;2023-01-15T17:00:50;6.50;99.90
21445;DHT22;10883;51.946;20.140;2023-01-15T17:03:25;6.50;99.90
21445;DHT22;10883;51.946;20.140;2023-01-15T17:05:57;6.50;99.90
21445;DHT22;10883;51.946;20.140;2023-01-15T17:08:35;6.50;99.90
21445;DHT22;10883;51.946;20.140;2023-01-15T17:11:06;6.50;99.90
21445;DHT22;10883;51.946;20.140;2023-01-15T17:13:38;6.50;99.90
21445;DHT22;10883;51.946;20.140;2023-01-15T17:16:21;6.50;99.90
21445;DHT22;10883;51.946;20.140;2023-01-15T17:18:48;6.40;99.90
21445;DHT22;10883;51.946;20.140;2023-01-15T17:21:16;6.40;99.90
21445;DHT22;10883;51.946;20.140;2023-01-15T17:23:43;6.30;99.90
21445;DHT22;10883;51.946;20.140;2023-01-15T17:26:16;6.30;99.90
21445;DHT22;10883;51.946;20.140;2023-01-15T17:28:42;6.30;99.90
21445;DHT22;10883;51.946;20.140;2023-01-15T17:31:25;6.30;99.90
21445;DHT22;10883;51.946;20.140;2023-01-15T17:33:52;6.30;99.90
21445;DHT22;10883;51.946;20.140;2023-01-15T17:36:19;6.30;99.90
21445;DHT22;10883;51.946;20.140;2023-01-15T17:38:45;6.30;99.90
21445;DHT22;10883;51.946;20.140;2023-01-15T17:41:13;6.20;99.90
21445;DHT22;10883;51.946;20.140;2023-01-15T17:43:39;6.20;99.90
21445;DHT22;10883;51.946;20.140;2023-01-15T17:46:05;6.20;99.90
21445;DHT22;10883;51.946;20.140;2023-01-15T17:48:30;6.20;99.90
21445;DHT22;10883;51.946;20.140;2023-01-15T17:51:04;6.20;99.90
21445;DHT22;10883;51.946;20.140;2023-01-15T17:53:30;6.20;99.90
21445;DHT22;10883;51.946;20.140;2023-01-15T17:56:00;6.20;99.90
21445;DHT22;10883;51.946;20.140;2023-01-15T17:58:44;6.30;99.90
21445;DHT22;10883;51.946;20.140;2023-01-15T18:01:31;6.30;99.90
21445;DHT22;10883;51.946;20.140;2023-01-15T18:04:21;6.30;99.90
21445;DHT22;10883;51.946;20.140;2023-01-15T18:07:07;6.30;99.90
21445;DHT22;10883;51.946;20.140;2023-01-15T18:09:34;6.30;99.90